createdAt,value
2018-10-16T00:01:34.724Z,54.80
2018-10-16T00:04:03.307Z,55.15
2018-10-16T00:06:31.883Z,55.43
2018-10-16T00:09:00.491Z,55.61
2018-10-16T00:11:29.267Z,55.90
2018-10-16T00:13:57.835Z,56.04
2018-10-16T00:16:26.527Z,55.71
2018-10-16T00:18:55.109Z,55.66
2018-10-16T00:21:23.688Z,55.67
2018-10-16T00:23:52.644Z,55.65
2018-10-16T00:26:21.227Z,55.45
2018-10-16T00:28:49.811Z,55.41
2018-10-16T00:31:18.500Z,55.46
2018-10-16T00:33:47.105Z,55.61
2018-10-16T00:36:15.676Z,55.73
2018-10-16T00:38:44.303Z,55.53
2018-10-16T00:41:12.895Z,55.53
2018-10-16T00:43:41.487Z,55.77
2018-10-16T00:46:10.081Z,55.65
2018-10-16T00:48:38.679Z,56.12
2018-10-16T00:51:07.262Z,55.92
2018-10-16T00:53:36.181Z,55.53
2018-10-16T00:56:04.773Z,56.06
2018-10-16T00:58:33.340Z,55.86
2018-10-16T01:01:01.956Z,56.12
2018-10-16T01:03:30.552Z,56.50
2018-10-16T01:05:59.340Z,56.66
2018-10-16T01:08:27.932Z,56.14
2018-10-16T01:10:56.519Z,56.47
2018-10-16T01:13:25.084Z,56.30
2018-10-16T01:15:53.705Z,56.77
2018-10-16T01:18:22.304Z,56.89
2018-10-16T01:20:50.868Z,56.95
2018-10-16T01:23:19.796Z,57.05
2018-10-16T01:25:48.385Z,56.94
2018-10-16T01:28:16.974Z,56.98
2018-10-16T01:30:45.687Z,56.80
2018-10-16T01:33:14.245Z,56.50
2018-10-16T01:35:42.819Z,56.39
2018-10-16T01:38:11.393Z,56.29
2018-10-16T01:40:39.959Z,57.00
2018-10-16T01:43:08.552Z,56.84
2018-10-16T01:45:37.228Z,56.85
2018-10-16T01:48:06.130Z,57.11
2018-10-16T01:50:34.700Z,56.89
2018-10-16T01:53:03.699Z,56.87
2018-10-16T01:55:32.268Z,57.05
2018-10-16T01:58:00.848Z,56.87
2018-10-16T02:00:29.524Z,56.66
2018-10-16T02:02:58.131Z,57.09
2018-10-16T02:05:26.728Z,56.83
2018-10-16T02:07:55.664Z,56.67
2018-10-16T02:10:24.237Z,56.68
2018-10-16T02:12:52.800Z,56.81
2018-10-16T02:15:21.655Z,56.92
2018-10-16T02:17:50.287Z,56.83
2018-10-16T02:20:18.904Z,56.68
2018-10-16T02:22:47.531Z,57.04
2018-10-16T02:25:16.123Z,56.91
2018-10-16T02:27:44.704Z,57.34
2018-10-16T02:30:13.555Z,57.48
2018-10-16T02:32:42.115Z,57.12
2018-10-16T02:35:11.907Z,57.66
2018-10-16T02:37:40.604Z,56.95
2018-10-16T02:40:10.407Z,57.24
2018-10-16T02:42:39.840Z,57.12
2018-10-16T02:45:10.288Z,57.08
2018-10-16T02:47:39.477Z,57.36
2018-10-16T02:50:08.980Z,57.13
2018-10-16T02:52:37.956Z,57.25
2018-10-16T02:55:08.201Z,56.99
2018-10-16T02:57:36.800Z,57.14
2018-10-16T03:00:05.569Z,57.08
2018-10-16T03:02:34.256Z,57.12
2018-10-16T03:05:02.821Z,57.24
2018-10-16T03:07:31.410Z,57.15
2018-10-16T03:10:00.281Z,56.89
2018-10-16T03:12:28.864Z,56.83
2018-10-16T03:14:57.440Z,57.30
2018-10-16T03:17:26.116Z,57.17
2018-10-16T03:19:54.723Z,57.34
2018-10-16T03:22:23.420Z,57.32
2018-10-16T03:24:52.052Z,57.50
2018-10-16T03:27:20.659Z,57.49
2018-10-16T03:29:49.227Z,57.62
2018-10-16T03:32:17.832Z,57.96
2018-10-16T03:34:46.427Z,57.54
2018-10-16T03:37:14.993Z,57.47
2018-10-16T03:39:43.604Z,57.15
2018-10-16T03:42:12.188Z,57.41
2018-10-16T03:44:40.778Z,57.24
2018-10-16T03:47:09.444Z,57.63
2018-10-16T03:49:38.004Z,57.31
2018-10-16T03:52:06.619Z,57.03
2018-10-16T03:54:35.240Z,57.53
2018-10-16T03:57:03.884Z,57.67
2018-10-16T03:59:32.448Z,57.64
2018-10-16T04:02:01.059Z,57.70
2018-10-16T04:04:29.657Z,57.40
2018-10-16T04:06:58.276Z,57.65
2018-10-16T04:09:26.867Z,57.45
2018-10-16T04:11:55.507Z,57.68
2018-10-16T04:14:24.212Z,57.40
2018-10-16T04:16:52.840Z,57.70
2018-10-16T04:19:21.464Z,57.50
2018-10-16T04:21:50.039Z,57.96
2018-10-16T04:24:18.735Z,57.90
2018-10-16T04:26:47.304Z,58.43
2018-10-16T04:29:16.113Z,58.60
2018-10-16T04:31:44.652Z,58.33
2018-10-16T04:34:13.215Z,58.18
2018-10-16T04:36:41.790Z,58.13
2018-10-16T04:39:12.563Z,58.47
2018-10-16T04:41:41.210Z,58.59
2018-10-16T04:44:09.773Z,58.43
2018-10-16T04:46:38.547Z,59.07
2018-10-16T04:49:07.351Z,58.51
2018-10-16T04:51:35.948Z,58.43
2018-10-16T04:54:04.662Z,58.78
2018-10-16T04:56:33.463Z,58.09
2018-10-16T04:59:02.042Z,58.31
2018-10-16T05:01:30.676Z,58.14
2018-10-16T05:03:59.305Z,58.30
2018-10-16T05:06:27.853Z,58.01
2018-10-16T05:08:56.471Z,57.99
2018-10-16T05:11:25.052Z,58.12
2018-10-16T05:13:53.616Z,58.75
2018-10-16T05:16:22.315Z,58.57
2018-10-16T05:18:50.940Z,58.29
2018-10-16T05:21:19.511Z,58.40
2018-10-16T05:23:48.193Z,58.39
2018-10-16T05:26:16.808Z,58.21
2018-10-16T05:28:45.368Z,58.75
2018-10-16T05:31:14.142Z,58.61
2018-10-16T05:33:42.642Z,58.91
2018-10-16T05:36:11.216Z,58.79
2018-10-16T05:38:39.844Z,58.61
2018-10-16T05:41:08.801Z,58.11
2018-10-16T05:43:37.368Z,58.19
2018-10-16T05:46:06.303Z,58.45
2018-10-16T05:48:34.895Z,58.42
2018-10-16T05:51:03.463Z,58.46
2018-10-16T05:53:32.064Z,58.64
2018-10-16T05:56:03.522Z,59.16
2018-10-16T05:58:32.315Z,58.75
2018-10-16T06:01:00.926Z,58.86
2018-10-16T06:03:29.520Z,58.71
2018-10-16T06:05:58.127Z,58.86
2018-10-16T06:08:26.691Z,58.98
2018-10-16T06:10:55.322Z,58.82
2018-10-16T06:13:23.903Z,58.58
2018-10-16T06:15:52.514Z,59.18
2018-10-16T06:18:21.040Z,58.89
2018-10-16T06:20:49.676Z,58.63
2018-10-16T06:23:18.235Z,58.69
2018-10-16T06:25:46.831Z,58.49
2018-10-16T06:28:22.136Z,58.62
2018-10-16T06:30:50.728Z,58.45
2018-10-16T06:33:23.407Z,58.29
2018-10-16T06:35:51.948Z,58.08
2018-10-16T06:38:20.590Z,58.19
2018-10-16T06:40:49.710Z,57.79
2018-10-16T06:43:18.197Z,58.11
2018-10-16T06:45:47.053Z,58.18
2018-10-16T06:48:15.920Z,58.13
2018-10-16T06:50:44.236Z,57.87
2018-10-16T06:53:12.903Z,57.63
2018-10-16T06:55:41.684Z,57.64
2018-10-16T06:58:10.252Z,57.14
2018-10-16T07:00:38.839Z,56.53
2018-10-16T07:03:07.608Z,56.80
2018-10-16T07:05:36.184Z,56.06
2018-10-16T07:08:04.768Z,55.22
2018-10-16T07:10:33.419Z,54.48
2018-10-16T07:13:02.392Z,53.77
2018-10-16T07:15:30.971Z,53.08
2018-10-16T07:17:59.684Z,52.40
2018-10-16T07:20:28.290Z,52.07
2018-10-16T07:22:56.855Z,51.32
2018-10-16T07:25:25.706Z,51.96
2018-10-16T07:27:54.296Z,51.07
2018-10-16T07:30:23.036Z,52.38
2018-10-16T07:32:51.628Z,51.83
2018-10-16T07:35:20.219Z,52.06
2018-10-16T07:37:48.855Z,51.76
2018-10-16T07:40:17.392Z,52.09
2018-10-16T07:42:45.957Z,51.15
2018-10-16T07:45:14.550Z,50.86
2018-10-16T07:47:43.148Z,50.99
2018-10-16T07:50:12.733Z,51.43
2018-10-16T07:52:41.327Z,50.48
2018-10-16T07:55:12.461Z,50.56
2018-10-16T07:57:41.510Z,50.17
2018-10-16T08:00:11.801Z,49.86
2018-10-16T08:02:41.267Z,49.22
2018-10-16T08:05:11.096Z,48.68
2018-10-16T08:07:40.423Z,48.43
2018-10-16T08:10:10.392Z,48.03
2018-10-16T08:12:39.004Z,47.57
2018-10-16T08:15:08.409Z,46.96
2018-10-16T08:17:36.991Z,47.41
2018-10-16T08:20:05.796Z,46.64
2018-10-16T08:22:34.380Z,45.93
2018-10-16T08:25:02.936Z,45.91
2018-10-16T08:27:31.652Z,44.71
2018-10-16T08:30:00.307Z,44.81
2018-10-16T08:32:28.820Z,43.54
2018-10-16T08:34:58.128Z,43.13
2018-10-16T08:37:37.939Z,43.41
2018-10-16T08:40:07.204Z,42.44
2018-10-16T08:43:49.242Z,41.72
2018-10-16T08:46:29.672Z,41.52
2018-10-16T08:49:09.984Z,41.06
2018-10-16T08:51:43.507Z,40.88
2018-10-16T08:54:12.083Z,40.84
2018-10-16T08:56:40.668Z,40.47
2018-10-16T08:59:09.420Z,40.16
2018-10-16T09:01:38.053Z,39.81
2018-10-16T09:04:06.811Z,38.17
2018-10-16T09:06:35.620Z,37.61
2018-10-16T09:09:05.399Z,37.45
2018-10-16T09:11:33.960Z,36.69
2018-10-16T09:14:02.659Z,35.96
2018-10-16T09:16:31.187Z,35.41
2018-10-16T09:18:59.743Z,35.67
2018-10-16T09:21:28.576Z,34.88
2018-10-16T09:23:57.128Z,34.99
2018-10-16T09:26:25.715Z,34.70
2018-10-16T09:28:54.371Z,34.20
2018-10-16T09:31:22.939Z,34.07
2018-10-16T09:33:51.516Z,34.22
2018-10-16T09:36:20.147Z,34.35
2018-10-16T09:38:48.711Z,32.99
2018-10-16T09:41:17.272Z,31.77
2018-10-16T09:43:45.864Z,30.29
2018-10-16T09:46:14.451Z,28.71
2018-10-16T09:48:43.027Z,29.00
2018-10-16T09:51:12.055Z,28.22
2018-10-16T09:53:40.596Z,26.54
2018-10-16T09:56:09.192Z,25.72
2018-10-16T09:58:37.786Z,25.26
2018-10-16T10:01:11.634Z,24.95
2018-10-16T10:03:40.240Z,24.54
2018-10-16T10:06:08.795Z,24.11
2018-10-16T10:08:37.352Z,24.84
2018-10-16T10:11:06.485Z,25.38
2018-10-16T10:13:35.017Z,25.81
2018-10-16T10:16:03.624Z,25.82
2018-10-16T10:18:32.214Z,25.51
2018-10-16T10:21:00.767Z,25.83
2018-10-16T10:23:29.401Z,24.91
2018-10-16T10:25:58.023Z,25.22
2018-10-16T10:28:26.599Z,25.02
2018-10-16T10:30:55.160Z,24.68
2018-10-16T10:33:23.836Z,24.54
2018-10-16T10:35:52.420Z,24.99
2018-10-16T10:38:20.984Z,25.17
2018-10-16T10:40:49.596Z,24.35
2018-10-16T10:43:18.151Z,24.75
2018-10-16T10:45:46.718Z,25.15
2018-10-16T10:48:15.423Z,25.34
2018-10-16T10:50:44.160Z,24.47
2018-10-16T10:53:12.600Z,24.33
2018-10-16T10:55:41.196Z,25.63
2018-10-16T10:58:09.868Z,26.04
2018-10-16T11:00:38.420Z,26.30
2018-10-16T11:03:07.092Z,25.86
2018-10-16T11:05:35.628Z,24.93
2018-10-16T11:08:04.199Z,22.71
2018-10-16T11:10:32.776Z,22.51
2018-10-16T11:13:02.132Z,20.70
2018-10-16T11:15:30.702Z,18.40
2018-10-16T11:17:59.384Z,16.94
2018-10-16T11:20:27.951Z,17.27
2018-10-16T11:22:56.512Z,15.41
2018-10-16T11:25:25.144Z,14.97
2018-10-16T11:27:53.723Z,13.91
2018-10-16T11:30:22.360Z,13.32
2018-10-16T11:32:51.003Z,12.75
2018-10-16T11:35:19.613Z,11.98
2018-10-16T11:37:48.217Z,12.05
2018-10-16T11:40:16.930Z,11.66
2018-10-16T11:42:45.531Z,11.22
2018-10-16T11:45:14.180Z,10.55
2018-10-16T11:47:42.836Z,12.17
2018-10-16T11:50:12.397Z,12.25
2018-10-16T11:52:41.428Z,11.96
2018-10-16T11:55:10.684Z,12.02
2018-10-16T11:57:39.386Z,13.20
2018-10-16T12:00:11.621Z,14.99
2018-10-16T12:02:40.281Z,18.27
2018-10-16T12:05:08.797Z,19.75
2018-10-16T12:07:37.487Z,21.45
2018-10-16T12:10:06.476Z,22.19
2018-10-16T12:12:35.052Z,22.63
2018-10-16T12:15:03.671Z,23.52
2018-10-16T12:17:37.452Z,23.36
2018-10-16T12:20:10.951Z,24.29
2018-10-16T12:22:39.522Z,23.86
2018-10-16T12:25:08.593Z,25.11
2018-10-16T12:27:37.140Z,25.20
2018-10-16T12:30:06.932Z,25.03
2018-10-16T12:32:35.820Z,25.77
2018-10-16T12:35:04.600Z,25.90
2018-10-16T12:37:33.171Z,25.94
2018-10-16T12:40:01.775Z,26.20
2018-10-16T12:42:30.376Z,25.84
2018-10-16T12:44:58.979Z,25.65
2018-10-16T12:47:27.600Z,25.89
2018-10-16T12:49:56.199Z,26.16
2018-10-16T12:52:24.760Z,26.20
2018-10-16T12:54:53.337Z,26.20
2018-10-16T12:57:21.986Z,26.68
2018-10-16T12:59:50.633Z,25.61
2018-10-16T13:02:19.149Z,24.94
2018-10-16T13:04:48.447Z,25.62
2018-10-16T13:07:24.128Z,25.40
2018-10-16T13:09:52.791Z,25.57
2018-10-16T13:12:21.420Z,25.34
2018-10-16T13:14:50.008Z,25.77
2018-10-16T13:17:18.790Z,25.94
2018-10-16T13:19:47.340Z,25.46
2018-10-16T13:22:15.930Z,26.52
2018-10-16T13:24:44.623Z,26.56
2018-10-16T13:27:13.227Z,26.16
2018-10-16T13:29:41.951Z,26.17
2018-10-16T13:32:10.663Z,25.82
2018-10-16T13:34:39.267Z,25.37
2018-10-16T13:37:07.903Z,26.28
2018-10-16T13:39:36.656Z,25.34
2018-10-16T13:42:05.328Z,26.69
2018-10-16T13:44:33.896Z,25.59
2018-10-16T13:47:02.596Z,23.39
2018-10-16T13:49:31.183Z,23.19
2018-10-16T13:51:59.830Z,23.21
2018-10-16T13:54:28.395Z,23.02
2018-10-16T13:56:57.027Z,23.37
2018-10-16T13:59:25.572Z,23.15
2018-10-16T14:01:54.303Z,23.73
2018-10-16T14:04:22.871Z,23.22
2018-10-16T14:06:51.444Z,24.08
2018-10-16T14:09:20.289Z,24.20
2018-10-16T14:11:48.868Z,24.81
2018-10-16T14:14:17.509Z,24.51
2018-10-16T14:16:46.320Z,24.99
2018-10-16T14:19:25.748Z,24.70
2018-10-16T14:22:01.366Z,24.82
2018-10-16T14:24:32.067Z,24.93
2018-10-16T14:27:04.656Z,24.75
2018-10-16T14:29:37.148Z,25.38
2018-10-16T14:32:07.042Z,25.66
2018-10-16T14:34:39.224Z,25.73
2018-10-16T14:37:10.924Z,25.81
2018-10-16T14:39:41.322Z,26.04
2018-10-16T14:42:12.130Z,26.20
2018-10-16T14:44:40.876Z,25.83
2018-10-16T14:47:13.425Z,26.18
2018-10-16T14:49:47.028Z,25.73
2018-10-16T14:52:17.764Z,25.71
2018-10-16T14:54:48.878Z,26.26
2018-10-16T14:57:19.446Z,26.04
2018-10-16T14:59:52.064Z,26.21
2018-10-16T15:02:25.152Z,26.58
2018-10-16T15:04:56.844Z,26.40
2018-10-16T15:07:26.635Z,26.78
2018-10-16T15:09:58.918Z,26.72
2018-10-16T15:12:35.025Z,26.43
2018-10-16T15:15:07.442Z,26.72
2018-10-16T15:17:43.519Z,26.82
2018-10-16T15:20:15.352Z,26.77
2018-10-16T15:22:45.563Z,27.23
2018-10-16T15:25:18.676Z,26.85
2018-10-16T15:27:50.926Z,27.00
2018-10-16T15:30:22.288Z,27.56
2018-10-16T15:32:52.296Z,27.62
2018-10-16T15:35:24.274Z,27.23
2018-10-16T15:37:53.635Z,27.42
2018-10-16T15:40:24.500Z,27.76
2018-10-16T15:42:55.521Z,28.02
2018-10-16T15:45:27.929Z,28.35
2018-10-16T15:47:57.575Z,28.00
2018-10-16T15:50:29.390Z,28.33
2018-10-16T15:53:02.440Z,28.45
2018-10-16T15:55:34.319Z,29.30
2018-10-16T15:58:03.058Z,29.24
2018-10-16T16:00:35.348Z,29.45
2018-10-16T16:03:04.552Z,29.64
2018-10-16T16:05:36.079Z,29.93
2018-10-16T16:08:05.267Z,29.91
2018-10-16T16:10:34.495Z,30.59
2018-10-16T16:13:08.637Z,30.62
2018-10-16T16:15:37.332Z,31.41
2018-10-16T16:18:06.484Z,31.72
2018-10-16T16:20:35.092Z,30.98
2018-10-16T16:23:03.680Z,32.15
2018-10-16T16:25:32.285Z,31.71
2018-10-16T16:28:01.274Z,31.56
2018-10-16T16:30:29.962Z,32.03
2018-10-16T16:32:58.552Z,31.80
2018-10-16T16:35:27.515Z,32.76
2018-10-16T16:37:56.164Z,32.92
2018-10-16T16:40:24.733Z,32.92
2018-10-16T16:42:53.417Z,32.59
2018-10-16T16:45:22.004Z,33.29
2018-10-16T16:47:50.584Z,32.85
2018-10-16T16:50:19.208Z,33.42
2018-10-16T16:52:47.776Z,33.34
2018-10-16T16:55:16.684Z,34.19
2018-10-16T16:57:45.312Z,34.31
2018-10-16T17:00:14.960Z,33.83
2018-10-16T17:02:45.052Z,33.90
2018-10-16T17:05:14.354Z,33.97
2018-10-16T17:07:43.736Z,34.81
2018-10-16T17:10:12.556Z,34.24
2018-10-16T17:12:41.672Z,34.83
2018-10-16T17:15:13.254Z,34.38
2018-10-16T17:17:43.345Z,34.68
2018-10-16T17:20:13.019Z,35.22
2018-10-16T17:22:41.563Z,36.42
2018-10-16T17:25:13.331Z,36.31
2018-10-16T17:27:41.887Z,36.73
2018-10-16T17:30:12.945Z,36.02
2018-10-16T17:32:42.292Z,36.59
2018-10-16T17:35:11.888Z,36.65
2018-10-16T17:37:41.072Z,36.64
2018-10-16T17:40:12.080Z,36.58
2018-10-16T17:42:40.755Z,37.16
2018-10-16T17:45:11.376Z,37.59
2018-10-16T17:47:39.991Z,37.61
2018-10-16T17:50:11.374Z,37.43
2018-10-16T17:52:40.256Z,37.74
2018-10-16T17:55:09.688Z,38.03
2018-10-16T17:57:38.400Z,37.79
2018-10-16T18:00:09.860Z,38.30
2018-10-16T18:02:38.428Z,37.81
2018-10-16T18:05:07.103Z,38.03
2018-10-16T18:07:35.728Z,38.29
2018-10-16T18:10:04.336Z,38.14
2018-10-16T18:12:32.928Z,38.18
2018-10-16T18:15:01.597Z,38.15
2018-10-16T18:17:30.187Z,37.65
2018-10-16T18:19:58.795Z,38.18
2018-10-16T18:22:27.511Z,38.20
2018-10-16T18:24:56.155Z,38.52
2018-10-16T18:27:24.737Z,38.19
2018-10-16T18:29:53.531Z,38.21
2018-10-16T18:32:22.056Z,38.39
2018-10-16T18:34:50.636Z,38.93
2018-10-16T18:37:19.295Z,38.35
2018-10-16T18:39:47.929Z,38.76
2018-10-16T18:42:16.466Z,39.07
2018-10-16T18:44:45.052Z,39.50
2018-10-16T18:47:13.656Z,39.61
2018-10-16T18:49:42.276Z,39.66
2018-10-16T18:52:10.967Z,39.55
2018-10-16T18:54:39.523Z,39.47
2018-10-16T18:57:08.367Z,39.56
2018-10-16T18:59:36.940Z,39.93
2018-10-16T19:02:05.684Z,39.89
2018-10-16T19:04:34.266Z,40.28
2018-10-16T19:07:03.355Z,39.96
2018-10-16T19:09:31.924Z,40.38
2018-10-16T19:12:00.491Z,40.36
2018-10-16T19:14:29.211Z,39.96
2018-10-16T19:16:57.879Z,40.51
2018-10-16T19:19:26.447Z,40.64
2018-10-16T19:21:55.055Z,40.73
2018-10-16T19:24:23.628Z,40.89
2018-10-16T19:26:52.234Z,40.98
2018-10-16T19:29:20.943Z,41.05
2018-10-16T19:31:49.673Z,41.34
2018-10-16T19:34:18.284Z,41.72
2018-10-16T19:36:47.008Z,41.75
2018-10-16T19:39:15.627Z,42.35
2018-10-16T19:41:44.172Z,42.36
2018-10-16T19:44:12.824Z,42.37
2018-10-16T19:46:41.423Z,42.90
2018-10-16T19:49:10.264Z,42.89
2018-10-16T19:51:38.966Z,43.27
2018-10-16T19:54:07.584Z,43.08
2018-10-16T19:56:36.147Z,43.45
2018-10-16T19:59:04.780Z,43.54
2018-10-16T20:01:33.351Z,43.63
2018-10-16T20:04:01.974Z,43.80
2018-10-16T20:06:30.728Z,44.09
2018-10-16T20:08:59.414Z,44.17
2018-10-16T20:11:27.980Z,44.13
2018-10-16T20:13:56.648Z,44.13
2018-10-16T20:16:25.457Z,43.97
2018-10-16T20:18:54.234Z,44.09
2018-10-16T20:21:23.023Z,43.99
2018-10-16T20:23:51.605Z,43.70
2018-10-16T20:26:20.215Z,43.86
2018-10-16T20:28:48.883Z,43.59
2018-10-16T20:31:17.485Z,43.57
2018-10-16T20:33:46.080Z,43.95
2018-10-16T20:36:14.673Z,43.93
2018-10-16T20:38:45.460Z,44.23
2018-10-16T20:41:14.308Z,44.32
2018-10-16T20:43:42.912Z,44.60
2018-10-16T20:46:11.528Z,44.51
2018-10-16T20:48:40.276Z,44.46
2018-10-16T20:51:08.920Z,44.76
2018-10-16T20:53:37.528Z,44.95
2018-10-16T20:56:06.625Z,45.17
2018-10-16T20:58:35.693Z,45.20
2018-10-16T21:01:04.908Z,45.20
2018-10-16T21:03:34.474Z,45.26
2018-10-16T21:06:03.782Z,45.38
2018-10-16T21:08:32.572Z,45.53
2018-10-16T21:11:01.229Z,46.03
2018-10-16T21:13:29.843Z,45.97
2018-10-16T21:16:00.019Z,46.23
2018-10-16T21:18:29.363Z,46.81
2018-10-16T21:20:57.956Z,46.44
2018-10-16T21:23:26.807Z,47.47
2018-10-16T21:25:55.432Z,47.21
2018-10-16T21:28:24.080Z,47.38
2018-10-16T21:30:52.996Z,47.54
2018-10-16T21:33:22.688Z,48.09
2018-10-16T21:35:51.377Z,47.97
2018-10-16T21:38:19.960Z,48.27
2018-10-16T21:40:48.826Z,47.77
2018-10-16T21:43:17.424Z,48.32
2018-10-16T21:45:46.018Z,48.13
2018-10-16T21:48:14.908Z,48.39
2018-10-16T21:50:43.525Z,48.42
2018-10-16T21:53:12.146Z,48.22
2018-10-16T21:55:41.123Z,48.27
2018-10-16T21:58:09.944Z,48.15
2018-10-16T22:00:44.184Z,48.73
2018-10-16T22:03:12.748Z,49.15
2018-10-16T22:05:41.568Z,48.86
2018-10-16T22:08:10.447Z,48.83
2018-10-16T22:10:39.269Z,49.44
2018-10-16T22:13:10.419Z,49.82
2018-10-16T22:15:39.062Z,49.22
2018-10-16T22:18:07.712Z,49.40
2018-10-16T22:20:36.922Z,49.83
2018-10-16T22:23:06.545Z,50.20
2018-10-16T22:25:35.271Z,49.78
2018-10-16T22:28:04.100Z,49.86
2018-10-16T22:30:32.844Z,50.48
2018-10-16T22:33:01.655Z,50.75
2018-10-16T22:35:30.285Z,50.43
2018-10-16T22:37:58.851Z,50.00
2018-10-16T22:40:27.440Z,49.99
2018-10-16T22:42:56.251Z,50.42
2018-10-16T22:45:25.216Z,50.07
2018-10-16T22:47:53.805Z,50.25
2018-10-16T22:50:22.847Z,50.79
2018-10-16T22:52:51.454Z,50.53
2018-10-16T22:55:20.061Z,50.40
2018-10-16T22:57:48.840Z,51.07
2018-10-16T23:00:20.696Z,50.46
2018-10-16T23:02:51.335Z,50.78
2018-10-16T23:05:21.303Z,50.80
2018-10-16T23:07:51.939Z,51.16
2018-10-16T23:10:23.398Z,51.43
2018-10-16T23:12:58.512Z,51.24
2018-10-16T23:15:28.767Z,51.27
2018-10-16T23:17:58.669Z,51.25
2018-10-16T23:20:28.225Z,51.46
2018-10-16T23:22:59.887Z,51.36
2018-10-16T23:25:31.822Z,51.71
2018-10-16T23:28:01.878Z,51.75
2018-10-16T23:30:31.479Z,51.69
2018-10-16T23:33:01.275Z,51.62
2018-10-16T23:35:30.568Z,52.00
2018-10-16T23:37:59.356Z,51.80
2018-10-16T23:40:28.174Z,52.59
2018-10-16T23:42:56.950Z,51.94
2018-10-16T23:45:25.476Z,52.27
2018-10-16T23:47:54.551Z,52.65
2018-10-16T23:50:23.250Z,52.50
2018-10-16T23:52:51.833Z,53.14
2018-10-16T23:55:20.559Z,53.18
2018-10-16T23:57:49.133Z,52.99
